This is the latest recevied weather packets stored in our database for station/object KU9TRY. If no packets are shown the sender has not sent any weather packets the latest 10 day(s).
| Time | Temp. | Humidity | Pressure | Rain* | Wind** | Luminosity | Snow |
|---|---|---|---|---|---|---|---|
| 1778353956 | 23.89° C | 53% | 1011.6 hPa | 0 mm | - | 127 W/m² | - |
| 1778353652 | 23.89° C | 53% | 1011.7 hPa | 0 mm | - | 141 W/m² | - |
| 1778353349 | 23.89° C | 55% | 1011.6 hPa | 0 mm | - | 180 W/m² | - |
| 1778353047 | 23.33° C | 55% | 1011.6 hPa | 0 mm | - | 158 W/m² | - |
| 1778352743 | 22.78° C | 57% | 1011.5 hPa | 0 mm | - | 126 W/m² | - |
| 1778352441 | 22.22° C | 61% | 1011.2 hPa | 0 mm | - | 169 W/m² | - |
| 1778352138 | 22.22° C | 58% | 1011.6 hPa | 0 mm | - | 128 W/m² | - |
| 1778351834 | 22.78° C | 58% | 1011.5 hPa | 0 mm | - | 86 W/m² | - |
| 1778351529 | 22.78° C | 57% | 1011.5 hPa | 0 mm | - | 179 W/m² | - |
| 1778351225 | 22.78° C | 57% | 1011.5 hPa | 0 mm | - | 173 W/m² | - |
| 1778350922 | 22.78° C | 59% | 1011.2 hPa | 0 mm | - | 191 W/m² | - |
| 1778350620 | 22.78° C | 61% | 1011.2 hPa | 0 mm | - | 173 W/m² | - |
| 1778350317 | 22.78° C | 57% | 1011.1 hPa | 0 mm | - | 173 W/m² | - |
| 1778350014 | 22.22° C | 61% | 1010.9 hPa | 0 mm | - | 179 W/m² | - |
| 1778349710 | 22.22° C | 59% | 1011 hPa | 0 mm | - | 132 W/m² | - |
| 1778349406 | 22.22° C | 58% | 1010.9 hPa | 0 mm | - | 162 W/m² | - |
| 1778349104 | 22.22° C | 58% | 1011.1 hPa | 0 mm | - | 211 W/m² | - |
| 1778348800 | 22.22° C | 57% | 1011 hPa | 0 mm | - | 186 W/m² | - |
| 1778348500 | 22.78° C | 59% | 1011 hPa | 0 mm | - | 234 W/m² | - |
| 1778348196 | 22.78° C | 57% | 1011 hPa | 0 mm | - | 228 W/m² | - |
| 1778347892 | 22.22° C | 58% | 1011 hPa | 0 mm | - | 1098 W/m² | - |
| 1778347589 | 22.22° C | 56% | 1011.1 hPa | 0 mm | - | 997 W/m² | - |
| 1778347285 | 22.78° C | 56% | 1011.5 hPa | 0 mm | - | 156 W/m² | - |
| 1778346981 | 22.22° C | 61% | 1011.2 hPa | 0 mm | - | 1060 W/m² | - |
| 1778346677 | 22.22° C | 60% | 1011.5 hPa | 0 mm | - | 213 W/m² | - |
* Rain latest hour (hover to see other rain measurements)
** Current wind speed in m/s (hover to see current wind gust speed)